Time;durP1;ratioP1;P1;durP2;ratioP2;P2;SDS_P1;SDS_P2;PMS_P1;PMS_P2;Temp;Humidity;BMP_temperature;BMP_pressure;BME280_temperature;BME280_humidity;BME280_pressure;Samples;Min_cycle;Max_cycle;Signal;HPM_P1;HPM_P2
2021/08/15 00:00:37;;;;;;;;;;;;;;;27.28;62.92;100920.00;5108423;28;1396;-69
2021/08/15 00:03:04;;;;;;;;;;;;;;;27.29;63.60;100910.16;5108462;28;1180;-69
2021/08/15 00:05:31;;;;;;;;;;;;;;;27.27;61.78;100917.47;5108190;28;1334;-69
2021/08/15 00:07:58;;;;;;;;;;;;;;;27.28;62.90;100909.31;5089832;28;1154;-69
2021/08/15 00:10:25;;;;;;;;;;;;;;;27.27;62.98;100909.47;5107445;28;1310;-69
2021/08/15 00:12:51;;;;;;;;;;;;;;;27.27;63.00;100898.75;5107423;28;1115;-69
2021/08/15 00:15:19;;;;;;;;;;;;;;;27.27;62.43;100891.56;5108004;28;1977;-69
2021/08/15 00:17:46;;;;;;;;;;;;;;;27.26;62.36;100895.25;5089749;28;790;-68
2021/08/15 00:20:13;;;;;;;;;;;;;;;27.30;64.42;100903.84;5107843;28;1097;-68
2021/08/15 00:22:40;;;;;;;;;;;;;;;27.29;62.89;100903.00;5123343;28;1174;-69
2021/08/15 00:25:09;;;;;;;;;;;;;;;27.28;61.95;100895.94;5106594;28;1246;-68
2021/08/15 00:27:35;;;;;;;;;;;;;;;27.29;63.23;100928.88;5107752;28;766;-68
2021/08/15 00:30:03;;;;;;;;;;;;;;;27.29;62.05;100947.59;5109424;28;1311;-69
2021/08/15 00:32:30;;;;;;;;;;;;;;;27.31;63.66;100946.47;5093604;28;1153;-69
2021/08/15 00:34:57;;;;;;;;;;;;;;;27.29;63.32;100932.41;5110839;28;1909;-69
2021/08/15 00:37:23;;;;;;;;;;;;;;;27.27;63.32;100907.59;5111112;28;767;-69
2021/08/15 00:39:50;;;;;;;;;;;;;;;27.29;64.14;100900.31;5111708;28;1453;-71
2021/08/15 00:42:17;;;;;;;;;;;;;;;27.29;61.92;100891.44;5111795;28;1058;-69
2021/08/15 00:44:44;;;;;;;;;;;;;;;27.29;63.14;100872.72;5111604;28;881;-69
2021/08/15 00:47:11;;;;;;;;;;;;;;;27.28;63.21;100861.16;5112024;28;1339;-70
2021/08/15 00:49:37;;;;;;;;;;;;;;;27.28;62.22;100853.16;5112052;28;881;-69
2021/08/15 00:52:05;;;;;;;;;;;;;;;27.26;61.53;100844.44;5112017;28;1235;-70
2021/08/15 00:54:33;;;;;;;;;;;;;;;27.28;63.21;100847.78;5111462;28;1933;-70
2021/08/15 00:57:00;;;;;;;;;;;;;;;27.29;62.45;100846.81;5112042;28;1323;-69
2021/08/15 00:59:27;;;;;;;;;;;;;;;27.27;61.36;100842.59;5111436;28;908;-69
2021/08/15 01:01:54;;;;;;;;;;;;;;;27.26;60.53;100841.75;5111806;28;1245;-69
2021/08/15 01:04:22;;;;;;;;;;;;;;;27.27;60.76;100864.81;5111368;28;777;-69
2021/08/15 01:06:49;;;;;;;;;;;;;;;27.29;62.04;100876.25;5111361;28;1282;-69
2021/08/15 01:09:15;;;;;;;;;;;;;;;27.29;61.78;100884.25;5111896;28;1150;-68
2021/08/15 01:11:42;;;;;;;;;;;;;;;27.29;61.56;100876.25;5111493;28;1256;-68
2021/08/15 01:14:09;;;;;;;;;;;;;;;27.27;60.70;100875.50;5092842;28;844;-68
2021/08/15 01:16:36;;;;;;;;;;;;;;;27.28;61.23;100873.69;5111130;28;1909;-68
2021/08/15 01:19:03;;;;;;;;;;;;;;;27.27;60.18;100870.16;5092608;28;1016;-70
2021/08/15 01:21:30;;;;;;;;;;;;;;;27.27;60.51;100864.81;5111429;28;1326;-69
2021/08/15 01:23:56;;;;;;;;;;;;;;;27.27;59.50;100885.41;5111637;28;765;-69
2021/08/15 01:26:23;;;;;;;;;;;;;;;27.27;59.33;100878.19;5107915;28;1494;-68
2021/08/15 01:28:51;;;;;;;;;;;;;;;27.27;59.62;100888.88;5079078;28;905;-68
2021/08/15 01:31:19;;;;;;;;;;;;;;;27.27;60.28;100882.72;5070701;28;1236;-69
2021/08/15 01:33:46;;;;;;;;;;;;;;;27.27;60.16;100883.53;5069330;28;1270;-69
2021/08/15 01:36:14;;;;;;;;;;;;;;;27.28;60.50;100887.91;5085657;28;1913;-68
2021/08/15 01:38:41;;;;;;;;;;;;;;;27.29;59.89;100900.31;5075022;28;1651;-69
2021/08/15 01:41:08;;;;;;;;;;;;;;;27.28;61.50;100898.59;5089794;28;1222;-69
2021/08/15 01:43:49;;;;;;;;;;;;;;;27.27;59.93;100902.25;5090370;28;739;-68
2021/08/15 01:46:19;;;;;;;;;;;;;;;27.27;60.70;100907.59;5090744;28;1204;-69
2021/08/15 01:48:46;;;;;;;;;;;;;;;27.27;61.83;100902.25;5106217;28;1286;-68
2021/08/15 01:51:16;;;;;;;;;;;;;;;27.26;59.43;100913.97;5090399;28;1250;-70
2021/08/15 01:53:43;;;;;;;;;;;;;;;27.28;61.17;100930.69;5099809;28;829;-69
2021/08/15 01:56:10;;;;;;;;;;;;;;;27.28;62.08;100922.69;5110696;28;1985;-68
2021/08/15 01:58:37;;;;;;;;;;;;;;;27.29;60.59;100921.72;5110891;28;774;-68
2021/08/15 02:01:04;;;;;;;;;;;;;;;27.27;61.23;100907.59;5110825;28;1247;-68
2021/08/15 02:03:31;;;;;;;;;;;;;;;27.27;60.71;100920.97;5110620;28;771;-69
2021/08/15 02:05:58;;;;;;;;;;;;;;;27.27;61.42;100925.50;5110461;28;1222;-69
2021/08/15 02:08:25;;;;;;;;;;;;;;;27.26;60.61;100921.13;5110511;28;1174;-68
2021/08/15 02:10:51;;;;;;;;;;;;;;;27.28;62.27;100925.34;5110505;28;1251;-70
2021/08/15 02:13:18;;;;;;;;;;;;;;;27.27;62.35;100929.00;5110545;28;838;-68
2021/08/15 02:15:45;;;;;;;;;;;;;;;27.29;63.36;100927.06;5110361;28;1918;-69
2021/08/15 02:18:12;;;;;;;;;;;;;;;27.26;60.62;100924.66;5110486;28;828;-68
2021/08/15 02:20:40;;;;;;;;;;;;;;;27.26;59.54;100913.97;5092003;28;1268;-68
2021/08/15 02:23:07;;;;;;;;;;;;;;;27.25;60.65;100903.38;5110116;28;1147;-68
2021/08/15 02:25:34;;;;;;;;;;;;;;;27.27;61.51;100907.59;5111739;28;1216;-67
2021/08/15 02:28:02;;;;;;;;;;;;;;;27.30;63.67;100896.63;5092234;28;833;-69
2021/08/15 02:30:29;;;;;;;;;;;;;;;27.30;63.59;100891.28;5091403;28;1310;-69
2021/08/15 02:32:55;;;;;;;;;;;;;;;27.24;60.80;100901.72;5110571;28;833;-69
2021/08/15 02:35:22;;;;;;;;;;;;;;;27.24;61.84;100907.06;5109921;28;1975;-69
2021/08/15 02:37:50;;;;;;;;;;;;;;;27.27;61.05;100896.91;5109767;28;759;-68
2021/08/15 02:40:19;;;;;;;;;;;;;;;27.24;61.45;100883.81;5109534;28;1510;-69
2021/08/15 02:42:46;;;;;;;;;;;;;;;27.25;61.61;100882.84;5109967;28;888;-68
2021/08/15 02:45:15;;;;;;;;;;;;;;;27.24;61.42;100889.16;5091520;28;1196;-68
2021/08/15 02:47:41;;;;;;;;;;;;;;;27.26;64.28;100895.25;5109752;28;774;-69
2021/08/15 02:50:09;;;;;;;;;;;;;;;27.24;61.66;100899.03;5109477;28;1280;-69
2021/08/15 02:52:36;;;;;;;;;;;;;;;27.22;61.55;100891.16;5109317;28;1024;-69
2021/08/15 02:55:03;;;;;;;;;;;;;;;27.23;64.13;100878.63;5108807;28;1906;-68
2021/08/15 02:57:30;;;;;;;;;;;;;;;27.24;63.87;100862.41;5109306;28;713;-68
2021/08/15 02:59:57;;;;;;;;;;;;;;;27.21;63.63;100865.38;5108314;28;1290;-68
2021/08/15 03:02:23;;;;;;;;;;;;;;;27.22;64.50;100883.13;5109692;28;1071;-68
2021/08/15 03:04:50;;;;;;;;;;;;;;;27.25;68.93;100901.56;5109261;28;1213;-69
2021/08/15 03:07:18;;;;;;;;;;;;;;;27.22;66.37;100892.97;5109540;28;1260;-69
2021/08/15 03:09:45;;;;;;;;;;;;;;;27.25;69.44;100888.19;5124908;27;1613;-69
2021/08/15 03:12:12;;;;;;;;;;;;;;;27.24;68.51;100880.31;5109536;28;1307;-68
2021/08/15 03:14:38;;;;;;;;;;;;;;;27.25;69.13;100882.00;5090847;28;1551;-70
2021/08/15 03:17:06;;;;;;;;;;;;;;;27.23;66.67;100883.97;5091058;28;1910;-69
2021/08/15 03:19:33;;;;;;;;;;;;;;;27.18;64.52;100892.41;5109253;28;1072;-69
2021/08/15 03:22:00;;;;;;;;;;;;;;;27.20;66.02;100895.78;5090895;28;1331;-68
2021/08/15 03:24:26;;;;;;;;;;;;;;;27.16;62.39;100897.03;5109468;28;833;-69
2021/08/15 03:26:53;;;;;;;;;;;;;;;27.18;63.52;100908.44;5110066;28;1209;-68
2021/08/15 03:29:20;;;;;;;;;;;;;;;27.20;66.91;100902.97;5109747;28;1129;-68
2021/08/15 03:31:47;;;;;;;;;;;;;;;27.20;67.56;100895.78;5108554;28;1334;-68
2021/08/15 03:34:14;;;;;;;;;;;;;;;27.15;63.40;100892.66;5108573;28;1075;-69
2021/08/15 03:36:41;;;;;;;;;;;;;;;27.17;64.68;100901.41;5108576;28;1988;-68
2021/08/15 03:39:07;;;;;;;;;;;;;;;27.15;66.23;100908.72;5108513;28;1364;-69
2021/08/15 03:41:34;;;;;;;;;;;;;;;27.14;66.20;100899.03;5109112;28;1216;-68
2021/08/15 03:44:00;;;;;;;;;;;;;;;27.14;66.13;100891.84;5108605;28;1164;-68
2021/08/15 03:46:27;;;;;;;;;;;;;;;27.14;65.92;100891.00;5090592;28;1305;-68
2021/08/15 03:48:54;;;;;;;;;;;;;;;27.15;65.57;100893.53;5108782;28;794;-69
2021/08/15 03:51:20;;;;;;;;;;;;;;;27.14;65.23;100891.00;5124153;27;1302;-68
2021/08/15 03:53:47;;;;;;;;;;;;;;;27.13;64.76;100900.00;5107960;28;891;-68
2021/08/15 03:56:14;;;;;;;;;;;;;;;27.11;63.51;100901.97;5108765;28;1906;-68
2021/08/15 03:58:41;;;;;;;;;;;;;;;27.11;65.27;100889.41;5108369;28;763;-69
2021/08/15 04:01:07;;;;;;;;;;;;;;;27.10;65.19;100900.28;5090031;28;1322;-69
2021/08/15 04:03:34;;;;;;;;;;;;;;;27.10;64.57;100905.63;5089663;28;1530;-68
2021/08/15 04:06:07;;;;;;;;;;;;;;;27.09;63.41;100903.91;5108087;28;1228;-69
2021/08/15 04:08:34;;;;;;;;;;;;;;;27.08;65.57;100896.91;5108703;28;937;-69
2021/08/15 04:11:01;;;;;;;;;;;;;;;27.08;65.46;100892.38;5108461;28;1293;-68
2021/08/15 04:13:28;;;;;;;;;;;;;;;27.07;64.34;100901.41;5108319;28;992;-68
2021/08/15 04:15:54;;;;;;;;;;;;;;;27.08;65.12;100891.56;5108409;28;1913;-68
2021/08/15 04:18:21;;;;;;;;;;;;;;;27.08;66.00;100899.56;5108635;28;798;-68
2021/08/15 04:20:48;;;;;;;;;;;;;;;27.05;66.20;100895.31;5108482;28;1221;-69
2021/08/15 04:23:14;;;;;;;;;;;;;;;27.06;65.91;100894.34;5108487;28;854;-69
2021/08/15 04:25:42;;;;;;;;;;;;;;;27.04;66.22;100892.81;5108764;28;1232;-68
2021/08/15 04:28:08;;;;;;;;;;;;;;;27.04;66.31;100906.16;5113680;28;874;-69
2021/08/15 04:30:35;;;;;;;;;;;;;;;27.02;65.97;100916.16;5112422;28;1233;-69
2021/08/15 04:33:02;;;;;;;;;;;;;;;27.01;63.59;100917.97;5109392;28;1197;-68
2021/08/15 04:35:29;;;;;;;;;;;;;;;27.01;66.02;100917.97;5108683;28;1945;-69
2021/08/15 04:37:57;;;;;;;;;;;;;;;27.01;66.17;100930.50;5108271;28;1079;-69
2021/08/15 04:40:23;;;;;;;;;;;;;;;27.00;66.60;100942.16;5113220;28;1436;-69
2021/08/15 04:42:50;;;;;;;;;;;;;;;27.01;66.23;100943.88;5108154;28;1094;-69
2021/08/15 04:45:17;;;;;;;;;;;;;;;26.99;66.67;100945.84;5108186;28;1411;-69
2021/08/15 04:47:43;;;;;;;;;;;;;;;26.97;67.09;100958.47;5089949;28;1742;-68
2021/08/15 04:50:10;;;;;;;;;;;;;;;26.97;67.31;100961.16;5108455;28;1216;-69
2021/08/15 04:52:37;;;;;;;;;;;;;;;26.95;67.41;100955.09;5088980;28;1150;-69
2021/08/15 04:55:04;;;;;;;;;;;;;;;26.96;67.50;100943.44;5108130;28;1224;-70
2021/08/15 04:57:30;;;;;;;;;;;;;;;26.97;67.53;100945.09;5108177;28;1914;-69
2021/08/15 04:59:57;;;;;;;;;;;;;;;26.94;67.53;100940.03;5108011;28;1318;-70
2021/08/15 05:02:24;;;;;;;;;;;;;;;26.94;67.31;100938.22;5107948;28;1276;-69
2021/08/15 05:04:50;;;;;;;;;;;;;;;26.97;67.65;100937.94;5090135;28;1100;-69
2021/08/15 05:07:17;;;;;;;;;;;;;;;26.94;68.08;100942.72;5108609;28;1167;-70
2021/08/15 05:09:44;;;;;;;;;;;;;;;26.93;67.97;100935.69;5108479;28;1079;-69
2021/08/15 05:12:10;;;;;;;;;;;;;;;26.93;68.51;100938.38;5108572;28;1314;-69
2021/08/15 05:14:37;;;;;;;;;;;;;;;26.91;68.63;100949.19;5107952;28;1147;-69
2021/08/15 05:17:06;;;;;;;;;;;;;;;26.89;68.81;100940.47;5125403;27;1987;-68
2021/08/15 05:19:32;;;;;;;;;;;;;;;26.88;68.93;100928.06;5111771;28;1091;-68
2021/08/15 05:21:59;;;;;;;;;;;;;;;26.89;69.18;100912.88;5111991;28;1303;-68
2021/08/15 05:24:26;;;;;;;;;;;;;;;26.89;69.29;100905.72;5111560;28;783;-69
2021/08/15 05:26:53;;;;;;;;;;;;;;;26.91;69.21;100916.25;5112156;28;1275;-68
2021/08/15 05:29:19;;;;;;;;;;;;;;;26.91;69.73;100913.56;5111463;28;858;-68
2021/08/15 05:31:46;;;;;;;;;;;;;;;26.91;69.54;100908.22;5111435;28;1369;-68
2021/08/15 05:34:13;;;;;;;;;;;;;;;26.87;70.07;100909.50;5111197;28;1075;-69
2021/08/15 05:36:39;;;;;;;;;;;;;;;26.87;69.92;100921.00;5111500;28;1905;-69
2021/08/15 05:39:06;;;;;;;;;;;;;;;26.88;69.35;100914.69;5111334;28;1175;-69
2021/08/15 05:41:33;;;;;;;;;;;;;;;26.88;69.95;100919.19;5111573;28;1255;-70
2021/08/15 05:43:59;;;;;;;;;;;;;;;26.87;69.78;100925.53;5111352;28;1076;-69
2021/08/15 05:46:26;;;;;;;;;;;;;;;26.89;70.01;100920.91;5111145;28;1224;-69
2021/08/15 05:48:53;;;;;;;;;;;;;;;26.89;70.00;100918.22;5110018;28;849;-69
2021/08/15 05:51:19;;;;;;;;;;;;;;;26.90;69.98;100931.44;5111157;28;1526;-69
2021/08/15 05:53:46;;;;;;;;;;;;;;;26.88;69.78;100938.75;5110501;28;1248;-69
2021/08/15 05:56:13;;;;;;;;;;;;;;;26.91;70.12;100942.97;5110376;28;1914;-68
2021/08/15 05:58:40;;;;;;;;;;;;;;;26.89;68.71;100944.94;5110133;28;1072;-67
2021/08/15 06:01:08;;;;;;;;;;;;;;;26.89;68.13;100934.25;5110147;28;1215;-67
2021/08/15 06:03:34;;;;;;;;;;;;;;;26.90;67.56;100930.63;5109944;28;850;-67
2021/08/15 06:06:02;;;;;;;;;;;;;;;26.92;69.38;100939.34;5109858;28;1244;-67
2021/08/15 06:08:29;;;;;;;;;;;;;;;26.92;69.65;100947.34;5110138;28;858;-68
2021/08/15 06:10:56;;;;;;;;;;;;;;;26.91;69.49;100951.00;5110137;28;1347;-66
2021/08/15 06:13:22;;;;;;;;;;;;;;;26.90;69.49;100968.03;5091054;28;1463;-68
2021/08/15 06:15:49;;;;;;;;;;;;;;;26.90;69.69;100957.34;5109895;28;1906;-68
2021/08/15 06:18:18;;;;;;;;;;;;;;;26.90;68.74;100973.38;5125394;27;1491;-68
2021/08/15 06:20:44;;;;;;;;;;;;;;;26.90;69.16;100962.69;5109667;28;1247;-68
2021/08/15 06:23:11;;;;;;;;;;;;;;;26.89;67.48;100955.66;5109791;28;864;-68
2021/08/15 06:25:38;;;;;;;;;;;;;;;26.89;67.57;100956.50;5125290;27;1484;-68
2021/08/15 06:28:05;;;;;;;;;;;;;;;26.90;68.87;100966.19;5109600;28;711;-69
2021/08/15 06:30:32;;;;;;;;;;;;;;;26.88;69.04;100964.63;5108685;28;1553;-67
2021/08/15 06:32:59;;;;;;;;;;;;;;;26.90;67.76;100963.50;5107953;28;1489;-67
2021/08/15 06:35:26;;;;;;;;;;;;;;;26.90;67.94;100963.50;5110278;28;1374;-67
2021/08/15 06:37:53;;;;;;;;;;;;;;;26.90;68.53;100970.72;5109402;28;1910;-68
2021/08/15 06:40:21;;;;;;;;;;;;;;;26.88;68.93;100967.31;5109524;28;1675;-66
2021/08/15 06:42:48;;;;;;;;;;;;;;;26.89;68.35;100961.84;5110126;28;923;-67
2021/08/15 06:45:18;;;;;;;;;;;;;;;26.92;68.44;100972.25;5109872;28;1223;-66
2021/08/15 06:47:44;;;;;;;;;;;;;;;26.92;66.75;100982.09;5109965;28;925;-66
2021/08/15 06:50:12;;;;;;;;;;;;;;;26.93;68.42;100968.59;5090984;28;1475;-66
2021/08/15 06:52:38;;;;;;;;;;;;;;;26.92;68.70;100966.06;5108862;28;1071;-67
2021/08/15 06:55:05;;;;;;;;;;;;;;;26.93;67.55;100981.94;5109481;28;1283;-65
2021/08/15 06:57:32;;;;;;;;;;;;;;;26.91;68.01;100997.28;5110252;28;1985;-66
2021/08/15 06:59:59;;;;;;;;;;;;;;;26.88;68.13;100981.53;5109414;28;1314;-66
2021/08/15 07:02:25;;;;;;;;;;;;;;;26.91;68.00;100980.41;5110036;28;833;-66
2021/08/15 07:04:52;;;;;;;;;;;;;;;26.90;67.23;100992.91;5109234;28;1225;-67
2021/08/15 07:07:19;;;;;;;;;;;;;;;26.94;68.34;100998.84;5109894;28;1222;-67
2021/08/15 07:09:45;;;;;;;;;;;;;;;26.93;67.74;101003.34;5107841;28;1216;-68
2021/08/15 07:12:12;;;;;;;;;;;;;;;26.92;67.59;101011.50;5124993;27;1184;-65
2021/08/15 07:14:41;;;;;;;;;;;;;;;26.95;67.89;101003.22;5107472;28;1514;-65
2021/08/15 07:17:09;;;;;;;;;;;;;;;26.95;67.93;101003.22;5107757;28;1909;-65
2021/08/15 07:19:35;;;;;;;;;;;;;;;26.96;67.65;101004.91;5108886;28;1300;-65
2021/08/15 07:22:02;;;;;;;;;;;;;;;26.96;67.82;100999.56;5108187;28;1299;-67
2021/08/15 07:24:30;;;;;;;;;;;;;;;26.94;67.43;101005.03;5108507;28;1276;-67
2021/08/15 07:26:57;;;;;;;;;;;;;;;26.97;65.89;101001.25;5103880;28;1383;-66
2021/08/15 07:29:24;;;;;;;;;;;;;;;26.97;65.96;100996.75;5104943;28;1197;-66
2021/08/15 07:31:52;;;;;;;;;;;;;;;26.99;67.07;101001.97;5106356;28;1377;-66
2021/08/15 07:34:19;;;;;;;;;;;;;;;26.99;66.14;101008.16;5104394;28;1201;-66
2021/08/15 07:36:45;;;;;;;;;;;;;;;27.01;67.48;101002.69;5105873;28;1972;-66
2021/08/15 07:39:13;;;;;;;;;;;;;;;27.00;65.19;100995.63;5120721;27;1382;-64
2021/08/15 07:41:40;;;;;;;;;;;;;;;27.04;65.76;101007.75;5108289;28;1389;-65
2021/08/15 07:44:06;;;;;;;;;;;;;;;27.13;67.14;101002.44;5109053;28;1272;-66
2021/08/15 07:46:33;;;;;;;;;;;;;;;27.07;66.66;100992.28;5108674;28;1270;-68
2021/08/15 07:49:00;;;;;;;;;;;;;;;27.05;63.76;101007.59;5108400;28;1301;-67
2021/08/15 07:51:30;;;;;;;;;;;;;;;27.08;66.25;101015.34;5108416;28;1298;-66
2021/08/15 07:53:57;;;;;;;;;;;;;;;27.04;62.49;101019.31;5107769;28;1318;-66
2021/08/15 07:56:24;;;;;;;;;;;;;;;27.07;63.28;100986.94;5108012;28;2017;-66
2021/08/15 07:58:50;;;;;;;;;;;;;;;27.10;64.95;100991.19;5108689;28;1264;-68
2021/08/15 08:01:17;;;;;;;;;;;;;;;27.12;66.24;100999.91;5087327;28;1359;-67
2021/08/15 08:03:45;;;;;;;;;;;;;;;27.09;63.36;100986.81;5108447;28;1285;-69
2021/08/15 08:06:11;;;;;;;;;;;;;;;27.11;62.50;100993.69;5107764;28;1276;-67
2021/08/15 08:08:38;;;;;;;;;;;;;;;27.14;62.56;100997.97;5107770;28;1094;-69
2021/08/15 08:11:05;;;;;;;;;;;;;;;27.25;65.82;100972.91;5107810;28;1185;-67
2021/08/15 08:13:31;;;;;;;;;;;;;;;27.24;65.85;100987.28;5108770;28;838;-67
2021/08/15 08:15:58;;;;;;;;;;;;;;;27.23;65.29;100993.63;5108373;28;1247;-70
2021/08/15 08:18:25;;;;;;;;;;;;;;;27.25;64.63;100995.16;5089967;28;1988;-70
2021/08/15 08:20:52;;;;;;;;;;;;;;;27.23;64.21;100996.28;5108495;28;1240;-69
2021/08/15 08:23:19;;;;;;;;;;;;;;;27.21;62.24;100988.38;5108489;28;1067;-68
2021/08/15 08:25:46;;;;;;;;;;;;;;;27.19;61.41;100979.66;5107911;28;1216;-69
2021/08/15 08:28:13;;;;;;;;;;;;;;;27.18;61.78;101004.69;5107425;28;714;-68
2021/08/15 08:30:40;;;;;;;;;;;;;;;27.18;61.78;101004.69;5088917;28;1228;-68
2021/08/15 08:33:07;;;;;;;;;;;;;;;27.18;61.73;100991.34;5107778;28;841;-68
2021/08/15 08:35:34;;;;;;;;;;;;;;;27.18;61.00;100994.00;5107402;28;1196;-68
2021/08/15 08:38:00;;;;;;;;;;;;;;;27.18;61.19;101002.03;5108667;28;1910;-68
2021/08/15 08:40:27;;;;;;;;;;;;;;;27.19;61.45;101011.75;5086523;28;1751;-68
2021/08/15 08:42:54;;;;;;;;;;;;;;;27.19;60.93;100998.38;5086943;28;830;-67
2021/08/15 08:45:22;;;;;;;;;;;;;;;27.19;61.07;100995.72;5088530;28;1310;-68
2021/08/15 08:47:49;;;;;;;;;;;;;;;27.19;61.39;100995.72;5086423;28;1182;-69
2021/08/15 08:50:17;;;;;;;;;;;;;;;27.21;60.53;100987.56;5088656;28;1208;-68
2021/08/15 08:52:45;;;;;;;;;;;;;;;27.22;61.11;100995.44;5090464;28;719;-68
2021/08/15 08:55:11;;;;;;;;;;;;;;;27.22;61.43;100995.44;5091827;28;1216;-69
2021/08/15 08:57:38;;;;;;;;;;;;;;;27.24;61.44;100993.47;5091111;28;1910;-69
2021/08/15 09:00:05;;;;;;;;;;;;;;;27.25;63.11;100989.81;5091829;28;1244;-68
2021/08/15 09:02:37;;;;;;;;;;;;;;;27.25;61.49;100991.63;5091825;28;849;-68
2021/08/15 09:05:06;;;;;;;;;;;;;;;27.24;61.79;100998.00;5073345;28;1176;-68
2021/08/15 09:07:35;;;;;;;;;;;;;;;27.24;61.47;100985.44;5091903;28;888;-69
2021/08/15 09:10:04;;;;;;;;;;;;;;;27.25;61.26;100984.47;5088959;28;1311;-68
2021/08/15 09:12:34;;;;;;;;;;;;;;;27.25;61.37;100984.47;5090068;28;1859;-68
2021/08/15 09:15:06;;;;;;;;;;;;;;;27.25;60.65;100984.47;5090232;28;1240;-69
2021/08/15 09:17:34;;;;;;;;;;;;;;;27.28;60.96;100980.66;5091266;28;1974;-69
2021/08/15 09:20:02;;;;;;;;;;;;;;;27.29;60.92;100983.22;5091183;28;1232;-69
2021/08/15 09:22:31;;;;;;;;;;;;;;;27.30;62.51;100987.56;5091138;28;806;-69
2021/08/15 09:25:03;;;;;;;;;;;;;;;27.31;62.08;100991.09;5091263;28;1244;-69
2021/08/15 09:27:33;;;;;;;;;;;;;;;27.31;61.62;100993.78;5091250;28;877;-69
2021/08/15 09:30:22;;;;;;;;;;;;;;;27.33;62.23;100997.16;5090029;28;1278;-69
2021/08/15 09:32:51;;;;;;;;;;;;;;;27.28;61.17;100992.22;5090955;28;786;-68
2021/08/15 09:35:21;;;;;;;;;;;;;;;27.33;61.72;100987.28;5090557;28;1220;-68
2021/08/15 09:37:53;;;;;;;;;;;;;;;27.32;62.12;100982.94;5089152;28;1971;-68
2021/08/15 09:40:25;;;;;;;;;;;;;;;27.32;61.88;100985.63;5109407;28;1509;-68
2021/08/15 09:42:52;;;;;;;;;;;;;;;27.33;61.32;100981.94;5111041;28;821;-69
2021/08/15 09:45:33;;;;;;;;;;;;;;;27.36;61.09;100980.84;5110447;28;1196;-69
2021/08/15 09:48:17;;;;;;;;;;;;;;;27.37;61.96;100980.69;5110737;28;785;-68
2021/08/15 09:51:03;;;;;;;;;;;;;;;27.38;62.40;100979.72;5110626;28;1244;-69
2021/08/15 09:53:29;;;;;;;;;;;;;;;27.37;60.70;100974.50;5110357;28;900;-69
2021/08/15 09:55:57;;;;;;;;;;;;;;;27.36;61.84;100980.84;5110598;28;1267;-68
2021/08/15 09:58:24;;;;;;;;;;;;;;;27.38;60.24;100979.72;5110852;28;1906;-69
2021/08/15 10:00:57;;;;;;;;;;;;;;;27.39;60.59;100973.38;5110823;28;1314;-69
2021/08/15 10:03:24;;;;;;;;;;;;;;;27.41;61.91;100973.25;5109803;28;845;-69
2021/08/15 10:05:51;;;;;;;;;;;;;;;27.40;61.97;100977.75;5110553;28;1298;-68
2021/08/15 10:08:19;;;;;;;;;;;;;;;27.44;61.97;100975.69;5110241;28;920;-68
2021/08/15 10:10:47;;;;;;;;;;;;;;;27.40;60.57;100964.38;5110164;28;1297;-68
2021/08/15 10:13:17;;;;;;;;;;;;;;;27.43;61.54;100960.59;5110658;28;798;-68
2021/08/15 10:15:52;;;;;;;;;;;;;;;27.44;62.17;100962.31;5110796;28;1346;-67
2021/08/15 10:18:21;;;;;;;;;;;;;;;27.38;60.30;100963.69;5110480;28;1911;-68
2021/08/15 10:20:48;;;;;;;;;;;;;;;27.39;61.26;100960.00;5110319;28;1248;-68
2021/08/15 10:23:16;;;;;;;;;;;;;;;27.45;61.33;100966.69;5110522;28;813;-68
2021/08/15 10:25:43;;;;;;;;;;;;;;;27.44;61.70;100956.94;5091556;28;1247;-68
2021/08/15 10:28:28;;;;;;;;;;;;;;;27.44;59.88;100971.19;5110374;28;921;-68
2021/08/15 10:30:56;;;;;;;;;;;;;;;27.44;60.85;100960.47;5109907;28;1220;-68
2021/08/15 10:33:24;;;;;;;;;;;;;;;27.43;60.31;100966.81;5109550;28;852;-69
2021/08/15 10:36:09;;;;;;;;;;;;;;;27.45;60.21;100974.69;5109217;28;1581;-68
2021/08/15 10:38:36;;;;;;;;;;;;;;;27.43;60.29;100972.16;5109328;28;1914;-69
2021/08/15 10:41:06;;;;;;;;;;;;;;;27.46;60.10;100966.53;5109921;28;1366;-68
2021/08/15 10:43:33;;;;;;;;;;;;;;;27.54;61.84;100966.66;5102404;28;1514;-68
2021/08/15 10:46:15;;;;;;;;;;;;;;;27.58;61.84;100962.75;5089267;28;1263;-66
2021/08/15 10:48:52;;;;;;;;;;;;;;;27.56;61.43;100978.09;5088608;28;920;-67
2021/08/15 10:51:37;;;;;;;;;;;;;;;27.55;61.56;100964.84;5089380;28;1402;-67
2021/08/15 10:54:04;;;;;;;;;;;;;;;27.54;60.98;100974.69;5087920;28;1577;-66
2021/08/15 10:56:49;;;;;;;;;;;;;;;27.54;61.52;100966.66;5086916;28;1447;-64
2021/08/15 10:59:33;;;;;;;;;;;;;;;27.50;60.58;100962.59;5087059;28;1969;-67
2021/08/15 11:02:08;;;;;;;;;;;;;;;27.56;61.62;100970.06;5087985;28;1254;-66
2021/08/15 11:04:36;;;;;;;;;;;;;;;27.54;61.15;100964.00;5088604;28;1522;-66
2021/08/15 11:07:03;;;;;;;;;;;;;;;27.58;61.07;100970.75;5088408;28;1483;-66
2021/08/15 11:09:49;;;;;;;;;;;;;;;27.63;62.03;100971.19;5086943;28;843;-66
2021/08/15 11:12:15;;;;;;;;;;;;;;;27.62;62.30;100974.00;5067352;28;1268;-66
2021/08/15 11:15:01;;;;;;;;;;;;;;;27.63;61.36;100967.69;5087087;28;838;-65
2021/08/15 11:17:29;;;;;;;;;;;;;;;27.68;62.66;100965.44;5087918;28;1902;-67
2021/08/15 11:19:56;;;;;;;;;;;;;;;27.66;61.24;100970.91;5088499;28;1314;-66
2021/08/15 11:22:25;;;;;;;;;;;;;;;27.71;61.64;100972.31;5088060;28;1681;-65
2021/08/15 11:24:54;;;;;;;;;;;;;;;27.63;60.32;100963.16;5088455;28;1313;-65
2021/08/15 11:27:22;;;;;;;;;;;;;;;27.53;59.73;100961.47;5088498;28;777;-66
2021/08/15 11:29:49;;;;;;;;;;;;;;;27.49;60.24;100960.03;5088082;28;1585;-69
2021/08/15 11:32:24;;;;;;;;;;;;;;;27.45;59.52;100962.16;5086105;28;1527;-68
2021/08/15 11:34:52;;;;;;;;;;;;;;;27.40;59.55;100959.03;5087756;28;1526;-69
2021/08/15 11:37:19;;;;;;;;;;;;;;;27.30;58.33;100946.63;5088147;28;1969;-67
2021/08/15 11:39:47;;;;;;;;;;;;;;;27.27;57.46;100961.09;5101460;28;1340;-68
2021/08/15 11:42:18;;;;;;;;;;;;;;;27.27;58.25;100961.09;5109216;28;1190;-67
2021/08/15 11:44:49;;;;;;;;;;;;;;;27.24;57.03;100960.56;5107061;28;1514;-68
2021/08/15 11:47:26;;;;;;;;;;;;;;;27.12;57.22;100968.66;5108427;28;1478;-68
2021/08/15 11:49:54;;;;;;;;;;;;;;;27.17;57.53;100962.06;5088599;28;1267;-66
2021/08/15 11:52:21;;;;;;;;;;;;;;;27.13;56.45;100961.50;5088741;28;988;-67
2021/08/15 11:54:49;;;;;;;;;;;;;;;27.08;56.43;100958.41;5088876;28;783;-69
2021/08/15 11:57:16;;;;;;;;;;;;;;;27.16;57.25;100953.19;5088890;28;1982;-70
2021/08/15 11:59:46;;;;;;;;;;;;;;;27.11;58.09;100963.47;5087271;28;1625;-69
2021/08/15 12:02:20;;;;;;;;;;;;;;;27.14;57.08;100956.03;5108717;28;1310;-70
2021/08/15 12:04:48;;;;;;;;;;;;;;;27.13;56.81;100956.16;5109143;28;1083;-70
2021/08/15 12:07:33;;;;;;;;;;;;;;;27.10;56.92;100953.75;5110987;28;1169;-70
2021/08/15 12:10:19;;;;;;;;;;;;;;;27.10;56.98;100949.25;5088089;28;1678;-68
2021/08/15 12:13:05;;;;;;;;;;;;;;;27.08;56.63;100953.03;5109061;28;1232;-67
2021/08/15 12:15:32;;;;;;;;;;;;;;;27.09;55.95;100957.38;5107798;28;1306;-68
2021/08/15 12:17:59;;;;;;;;;;;;;;;27.10;55.67;100956.41;5105554;28;1913;-68
2021/08/15 12:20:26;;;;;;;;;;;;;;;27.06;55.38;100963.00;5087096;28;1489;-68
2021/08/15 12:22:52;;;;;;;;;;;;;;;27.04;55.27;100954.28;5102980;28;1225;-68
2021/08/15 12:25:20;;;;;;;;;;;;;;;27.03;55.05;100950.75;5106083;28;1358;-68
2021/08/15 12:27:47;;;;;;;;;;;;;;;27.01;54.93;100943.88;5110192;27;1243;-67
2021/08/15 12:30:27;;;;;;;;;;;;;;;26.99;54.70;100935.16;5107140;28;1208;-69
2021/08/15 12:32:55;;;;;;;;;;;;;;;26.99;54.67;100921.78;5106610;28;1244;-69
2021/08/15 12:35:28;;;;;;;;;;;;;;;26.97;54.19;100924.56;5109677;28;1267;-66
2021/08/15 12:37:55;;;;;;;;;;;;;;;26.96;54.04;100925.53;5107513;28;1921;-66
2021/08/15 12:40:29;;;;;;;;;;;;;;;26.98;53.68;100902.22;5101189;28;1744;-66
2021/08/15 12:42:58;;;;;;;;;;;;;;;26.93;53.64;100912.44;5096612;28;1063;-67
2021/08/15 12:45:30;;;;;;;;;;;;;;;26.95;53.48;100923.03;5079978;28;1245;-67
2021/08/15 12:47:59;;;;;;;;;;;;;;;26.96;53.37;100936.25;5075372;28;1210;-68
2021/08/15 12:50:26;;;;;;;;;;;;;;;26.89;52.98;100926.25;5098426;28;1263;-67
2021/08/15 12:52:54;;;;;;;;;;;;;;;26.90;53.02;100922.59;5097725;28;1506;-66